sensor_id;sensor_type;location;lat;lon;timestamp;pressure;altitude;pressure_sealevel;temperature;humidity
21824;BME280;11074;48.596;9.238;2023-06-22T00:01:28;98203.44;;;23.92;80.57
21824;BME280;11074;48.596;9.238;2023-06-22T00:03:54;98212.31;;;23.89;80.45
21824;BME280;11074;48.596;9.238;2023-06-22T00:06:20;98200.88;;;23.87;80.31
21824;BME280;11074;48.596;9.238;2023-06-22T00:08:45;98199.31;;;23.86;80.54
21824;BME280;11074;48.596;9.238;2023-06-22T00:11:11;98192.16;;;23.82;80.24
21824;BME280;11074;48.596;9.238;2023-06-22T00:13:38;98192.34;;;23.77;80.49
21824;BME280;11074;48.596;9.238;2023-06-22T00:16:04;98204.72;;;23.74;80.94
21824;BME280;11074;48.596;9.238;2023-06-22T00:18:30;98212.91;;;23.74;80.75
21824;BME280;11074;48.596;9.238;2023-06-22T00:20:56;98211.66;;;23.72;81.58
21824;BME280;11074;48.596;9.238;2023-06-22T00:23:25;98218.28;;;23.71;81.10
21824;BME280;11074;48.596;9.238;2023-06-22T00:25:51;98210.97;;;23.63;81.31
21824;BME280;11074;48.596;9.238;2023-06-22T00:28:17;98218.13;;;23.67;82.01
21824;BME280;11074;48.596;9.238;2023-06-22T00:30:43;98208.22;;;23.63;82.22
21824;BME280;11074;48.596;9.238;2023-06-22T00:33:08;98218.81;;;23.64;82.24
21824;BME280;11074;48.596;9.238;2023-06-22T00:35:34;98217.09;;;23.60;82.71
21824;BME280;11074;48.596;9.238;2023-06-22T00:38:01;98208.22;;;23.63;82.08
21824;BME280;11074;48.596;9.238;2023-06-22T00:40:29;98196.72;;;23.57;81.79
21824;BME280;11074;48.596;9.238;2023-06-22T00:42:56;98194.59;;;23.63;82.36
21824;BME280;11074;48.596;9.238;2023-06-22T00:45:23;98189.13;;;23.63;81.59
21824;BME280;11074;48.596;9.238;2023-06-22T00:47:55;98184.34;;;23.60;82.14
21824;BME280;11074;48.596;9.238;2023-06-22T00:50:25;98189.66;;;23.56;82.53
21824;BME280;11074;48.596;9.238;2023-06-22T00:52:53;98189.19;;;23.54;82.08
21824;BME280;11074;48.596;9.238;2023-06-22T00:55:23;98186.47;;;23.54;82.61
21824;BME280;11074;48.596;9.238;2023-06-22T00:57:49;98197.59;;;23.49;82.35
21824;BME280;11074;48.596;9.238;2023-06-22T01:00:16;98208.59;;;23.40;82.66
21824;BME280;11074;48.596;9.238;2023-06-22T01:02:46;98211.56;;;23.27;82.53
21824;BME280;11074;48.596;9.238;2023-06-22T01:05:14;98211.56;;;23.27;82.49
21824;BME280;11074;48.596;9.238;2023-06-22T01:10:27;98214.28;;;23.27;83.09
21824;BME280;11074;48.596;9.238;2023-06-22T01:13:03;98227.31;;;23.21;83.35
21824;BME280;11074;48.596;9.238;2023-06-22T01:15:42;98215.75;;;23.24;83.12
21824;BME280;11074;48.596;9.238;2023-06-22T01:18:10;98210.88;;;23.30;83.07
21824;BME280;11074;48.596;9.238;2023-06-22T01:20:37;98221.81;;;23.30;83.03
21824;BME280;11074;48.596;9.238;2023-06-22T01:23:27;98217.75;;;23.15;83.64
21824;BME280;11074;48.596;9.238;2023-06-22T01:28:58;98231.66;;;23.02;83.36
21824;BME280;11074;48.596;9.238;2023-06-22T01:31:28;98213.28;;;23.11;83.41
21824;BME280;11074;48.596;9.238;2023-06-22T01:34:03;98215.59;;;23.21;82.89
21824;BME280;11074;48.596;9.238;2023-06-22T01:36:32;98216.75;;;23.20;82.33
21824;BME280;11074;48.596;9.238;2023-06-22T01:38:59;98215.81;;;23.16;82.88
21824;BME280;11074;48.596;9.238;2023-06-22T01:41:27;98213.38;;;23.23;82.23
21824;BME280;11074;48.596;9.238;2023-06-22T01:46:22;98210.28;;;23.24;82.55
21824;BME280;11074;48.596;9.238;2023-06-22T01:48:49;98209.91;;;23.14;82.43
21824;BME280;11074;48.596;9.238;2023-06-22T01:51:17;98214.75;;;23.08;83.30
21824;BME280;11074;48.596;9.238;2023-06-22T01:53:42;98217.28;;;23.13;82.90
21824;BME280;11074;48.596;9.238;2023-06-22T01:56:09;98219.81;;;23.18;82.92
21824;BME280;11074;48.596;9.238;2023-06-22T01:58:46;98206.50;;;23.17;82.45
21824;BME280;11074;48.596;9.238;2023-06-22T02:01:20;98206.84;;;23.15;82.84
21824;BME280;11074;48.596;9.238;2023-06-22T02:04:12;98205.31;;;23.06;83.25
21824;BME280;11074;48.596;9.238;2023-06-22T02:06:42;98199.25;;;23.00;82.85
21824;BME280;11074;48.596;9.238;2023-06-22T02:09:16;98213.03;;;23.04;83.70
21824;BME280;11074;48.596;9.238;2023-06-22T02:11:45;98213.69;;;23.01;83.41
21824;BME280;11074;48.596;9.238;2023-06-22T02:14:13;98213.84;;;23.04;83.41
21824;BME280;11074;48.596;9.238;2023-06-22T02:16:41;98223.94;;;23.04;83.14
21824;BME280;11074;48.596;9.238;2023-06-22T02:19:07;98227.78;;;23.03;82.95
21824;BME280;11074;48.596;9.238;2023-06-22T02:21:34;98224.25;;;23.02;83.18
21824;BME280;11074;48.596;9.238;2023-06-22T02:23:59;98221.72;;;22.97;83.46
21824;BME280;11074;48.596;9.238;2023-06-22T02:26:26;98213.75;;;22.92;83.21
21824;BME280;11074;48.596;9.238;2023-06-22T02:28:52;98211.34;;;22.90;83.97
21824;BME280;11074;48.596;9.238;2023-06-22T02:31:19;98218.59;;;22.86;84.30
21824;BME280;11074;48.596;9.238;2023-06-22T02:33:45;98230.94;;;22.84;84.25
21824;BME280;11074;48.596;9.238;2023-06-22T02:36:11;98224.88;;;22.78;83.86
21824;BME280;11074;48.596;9.238;2023-06-22T02:38:41;98217.19;;;22.80;84.05
21824;BME280;11074;48.596;9.238;2023-06-22T02:41:11;98217.47;;;22.87;83.62
21824;BME280;11074;48.596;9.238;2023-06-22T02:43:38;98213.47;;;22.85;83.74
21824;BME280;11074;48.596;9.238;2023-06-22T02:46:04;98219.78;;;22.77;84.18
21824;BME280;11074;48.596;9.238;2023-06-22T02:48:29;98216.78;;;22.70;84.29
21824;BME280;11074;48.596;9.238;2023-06-22T02:50:55;98207.91;;;22.73;84.75
21824;BME280;11074;48.596;9.238;2023-06-22T02:53:21;98206.00;;;22.73;84.67
21824;BME280;11074;48.596;9.238;2023-06-22T02:55:46;98202.16;;;22.74;84.12
21824;BME280;11074;48.596;9.238;2023-06-22T02:58:12;98194.63;;;22.71;84.75
21824;BME280;11074;48.596;9.238;2023-06-22T03:00:38;98195.13;;;22.65;85.09
21824;BME280;11074;48.596;9.238;2023-06-22T03:03:04;98193.56;;;22.55;85.16
21824;BME280;11074;48.596;9.238;2023-06-22T03:05:30;98185.31;;;22.43;85.42
21824;BME280;11074;48.596;9.238;2023-06-22T03:07:56;98195.06;;;22.44;85.11
21824;BME280;11074;48.596;9.238;2023-06-22T03:10:21;98187.03;;;22.48;85.25
21824;BME280;11074;48.596;9.238;2023-06-22T03:12:47;98190.69;;;22.52;84.62
21824;BME280;11074;48.596;9.238;2023-06-22T03:15:13;98183.19;;;22.49;84.83
21824;BME280;11074;48.596;9.238;2023-06-22T03:17:40;98191.84;;;22.51;85.03
21824;BME280;11074;48.596;9.238;2023-06-22T03:20:08;98185.44;;;22.47;85.23
21824;BME280;11074;48.596;9.238;2023-06-22T03:22:38;98188.03;;;22.43;85.51
21824;BME280;11074;48.596;9.238;2023-06-22T03:25:05;98187.31;;;22.55;85.26
21824;BME280;11074;48.596;9.238;2023-06-22T03:27:37;98184.31;;;22.48;84.63
21824;BME280;11074;48.596;9.238;2023-06-22T03:30:03;98182.44;;;22.40;85.57
21824;BME280;11074;48.596;9.238;2023-06-22T03:32:29;98183.44;;;22.35;85.18
21824;BME280;11074;48.596;9.238;2023-06-22T03:34:55;98180.22;;;22.33;84.89
21824;BME280;11074;48.596;9.238;2023-06-22T03:37:25;98175.75;;;22.28;85.36
21824;BME280;11074;48.596;9.238;2023-06-22T03:39:51;98173.03;;;22.28;85.79
21824;BME280;11074;48.596;9.238;2023-06-22T03:42:17;98171.94;;;22.21;85.80
21824;BME280;11074;48.596;9.238;2023-06-22T03:44:43;98175.97;;;22.15;85.53
21824;BME280;11074;48.596;9.238;2023-06-22T03:47:09;98172.44;;;22.14;85.50
21824;BME280;11074;48.596;9.238;2023-06-22T03:49:35;98176.44;;;22.17;85.13
21824;BME280;11074;48.596;9.238;2023-06-22T03:52:02;98176.94;;;22.19;85.45
21824;BME280;11074;48.596;9.238;2023-06-22T03:54:29;98173.25;;;22.15;85.25
21824;BME280;11074;48.596;9.238;2023-06-22T03:56:57;98172.59;;;22.18;85.69
21824;BME280;11074;48.596;9.238;2023-06-22T03:59:23;98172.59;;;22.18;85.67
21824;BME280;11074;48.596;9.238;2023-06-22T04:01:49;98172.41;;;22.23;85.81
21824;BME280;11074;48.596;9.238;2023-06-22T04:04:15;98167.63;;;22.20;85.77
21824;BME280;11074;48.596;9.238;2023-06-22T04:06:41;98169.03;;;22.26;85.66
21824;BME280;11074;48.596;9.238;2023-06-22T04:09:07;98166.78;;;22.28;85.92
21824;BME280;11074;48.596;9.238;2023-06-22T04:11:32;98165.66;;;22.29;86.34
21824;BME280;11074;48.596;9.238;2023-06-22T04:13:58;98156.53;;;22.25;86.33
21824;BME280;11074;48.596;9.238;2023-06-22T04:16:24;98157.69;;;22.24;86.79
21824;BME280;11074;48.596;9.238;2023-06-22T04:18:49;98160.41;;;22.24;86.70
21824;BME280;11074;48.596;9.238;2023-06-22T04:21:15;98153.16;;;22.28;86.36
21824;BME280;11074;48.596;9.238;2023-06-22T04:23:41;98147.25;;;22.26;86.57
21824;BME280;11074;48.596;9.238;2023-06-22T04:26:06;98152.69;;;22.26;86.17
21824;BME280;11074;48.596;9.238;2023-06-22T04:28:32;98151.66;;;22.10;86.55
21824;BME280;11074;48.596;9.238;2023-06-22T04:31:04;98149.09;;;22.05;86.95
21824;BME280;11074;48.596;9.238;2023-06-22T04:33:30;98143.50;;;22.01;86.96
21824;BME280;11074;48.596;9.238;2023-06-22T04:35:56;98140.47;;;22.03;87.55
21824;BME280;11074;48.596;9.238;2023-06-22T04:38:29;98132.75;;;22.13;87.46
21824;BME280;11074;48.596;9.238;2023-06-22T04:40:58;98128.38;;;22.21;87.02
21824;BME280;11074;48.596;9.238;2023-06-22T04:43:26;98136.50;;;22.29;87.06
21824;BME280;11074;48.596;9.238;2023-06-22T04:45:56;98136.16;;;22.31;87.10
21824;BME280;11074;48.596;9.238;2023-06-22T04:48:29;98135.84;;;22.32;87.28
21824;BME280;11074;48.596;9.238;2023-06-22T04:50:59;98125.06;;;22.36;86.63
21824;BME280;11074;48.596;9.238;2023-06-22T04:53:29;98120.56;;;22.40;86.53
21824;BME280;11074;48.596;9.238;2023-06-22T04:55:55;98116.72;;;22.41;86.92
21824;BME280;11074;48.596;9.238;2023-06-22T04:58:21;98118.78;;;22.44;86.91
21824;BME280;11074;48.596;9.238;2023-06-22T05:00:47;98123.91;;;22.46;87.04
21824;BME280;11074;48.596;9.238;2023-06-22T05:03:13;98118.47;;;22.46;86.94
21824;BME280;11074;48.596;9.238;2023-06-22T05:05:39;98106.59;;;22.42;86.98
21824;BME280;11074;48.596;9.238;2023-06-22T05:08:05;98111.06;;;22.46;87.13
21824;BME280;11074;48.596;9.238;2023-06-22T05:10:33;98103.50;;;22.52;86.99
21824;BME280;11074;48.596;9.238;2023-06-22T05:12:59;98108.78;;;22.57;87.19
21824;BME280;11074;48.596;9.238;2023-06-22T05:15:24;98104.41;;;22.64;86.73
21824;BME280;11074;48.596;9.238;2023-06-22T05:17:53;98101.34;;;22.66;86.97
21824;BME280;11074;48.596;9.238;2023-06-22T05:20:19;98102.63;;;22.68;87.00
21824;BME280;11074;48.596;9.238;2023-06-22T05:22:45;98092.97;;;22.71;86.76
21824;BME280;11074;48.596;9.238;2023-06-22T05:25:12;98096.34;;;22.68;86.65
21824;BME280;11074;48.596;9.238;2023-06-22T05:27:38;98090.59;;;22.69;86.26
21824;BME280;11074;48.596;9.238;2023-06-22T05:30:09;98093.91;;;22.75;86.81
21824;BME280;11074;48.596;9.238;2023-06-22T05:32:36;98086.50;;;22.75;85.88
21824;BME280;11074;48.596;9.238;2023-06-22T05:35:03;98088.72;;;22.82;86.01
21824;BME280;11074;48.596;9.238;2023-06-22T05:37:29;98084.22;;;22.86;85.14
21824;BME280;11074;48.596;9.238;2023-06-22T05:39:55;98088.31;;;22.92;84.78
21824;BME280;11074;48.596;9.238;2023-06-22T05:42:23;98091.41;;;23.03;84.61
21824;BME280;11074;48.596;9.238;2023-06-22T05:44:51;98084.19;;;23.07;83.83
21824;BME280;11074;48.596;9.238;2023-06-22T05:47:18;98088.75;;;23.15;83.42
21824;BME280;11074;48.596;9.238;2023-06-22T05:49:44;98087.59;;;23.16;83.26
21824;BME280;11074;48.596;9.238;2023-06-22T05:52:09;98092.84;;;23.21;82.91
21824;BME280;11074;48.596;9.238;2023-06-22T05:54:35;98084.66;;;23.21;83.01
21824;BME280;11074;48.596;9.238;2023-06-22T05:57:01;98088.19;;;23.21;81.92
21824;BME280;11074;48.596;9.238;2023-06-22T05:59:27;98090.25;;;23.24;81.65
21824;BME280;11074;48.596;9.238;2023-06-22T06:04:19;98092.66;;;23.26;82.66
21824;BME280;11074;48.596;9.238;2023-06-22T06:06:45;98093.91;;;23.28;82.19
21824;BME280;11074;48.596;9.238;2023-06-22T06:09:13;98088.91;;;23.30;81.48
21824;BME280;11074;48.596;9.238;2023-06-22T06:11:39;98089.81;;;23.34;80.83
21824;BME280;11074;48.596;9.238;2023-06-22T06:14:05;98094.31;;;23.39;80.95
21824;BME280;11074;48.596;9.238;2023-06-22T06:16:31;98094.91;;;23.44;80.43
21824;BME280;11074;48.596;9.238;2023-06-22T06:18:57;98101.13;;;23.45;80.80
21824;BME280;11074;48.596;9.238;2023-06-22T06:21:24;98097.75;;;23.48;80.24
21824;BME280;11074;48.596;9.238;2023-06-22T06:23:49;98092.28;;;23.48;80.03
21824;BME280;11074;48.596;9.238;2023-06-22T06:26:15;98083.41;;;23.51;80.31
21824;BME280;11074;48.596;9.238;2023-06-22T06:28:45;98093.00;;;23.57;80.74
21824;BME280;11074;48.596;9.238;2023-06-22T06:31:11;98090.25;;;23.57;80.99
21824;BME280;11074;48.596;9.238;2023-06-22T06:33:37;98087.63;;;23.61;80.67
21824;BME280;11074;48.596;9.238;2023-06-22T06:36:03;98083.47;;;23.63;80.52
21824;BME280;11074;48.596;9.238;2023-06-22T06:38:30;98085.63;;;23.70;80.15
21824;BME280;11074;48.596;9.238;2023-06-22T06:40:56;98082.09;;;23.69;80.16
21824;BME280;11074;48.596;9.238;2023-06-22T06:43:22;98082.66;;;23.75;80.53
21824;BME280;11074;48.596;9.238;2023-06-22T06:45:49;98080.38;;;23.77;80.36
21824;BME280;11074;48.596;9.238;2023-06-22T06:48:14;98086.78;;;23.81;80.29
21824;BME280;11074;48.596;9.238;2023-06-22T06:50:40;98080.28;;;23.85;80.02
21824;BME280;11074;48.596;9.238;2023-06-22T06:53:06;98075.63;;;23.86;79.52
21824;BME280;11074;48.596;9.238;2023-06-22T06:55:31;98080.41;;;23.89;79.35
21824;BME280;11074;48.596;9.238;2023-06-22T06:57:58;98072.09;;;23.97;78.54
21824;BME280;11074;48.596;9.238;2023-06-22T07:00:25;98076.88;;;24.00;78.38
21824;BME280;11074;48.596;9.238;2023-06-22T07:02:51;98082.81;;;24.02;78.24
21824;BME280;11074;48.596;9.238;2023-06-22T07:05:17;98083.84;;;24.10;77.83
21824;BME280;11074;48.596;9.238;2023-06-22T07:07:43;98073.03;;;24.14;77.85
21824;BME280;11074;48.596;9.238;2023-06-22T07:10:09;98071.56;;;24.16;78.15
21824;BME280;11074;48.596;9.238;2023-06-22T07:12:35;98072.44;;;24.20;78.12
21824;BME280;11074;48.596;9.238;2023-06-22T07:15:12;98076.19;;;24.28;76.65
21824;BME280;11074;48.596;9.238;2023-06-22T07:17:39;98076.19;;;24.28;77.47
21824;BME280;11074;48.596;9.238;2023-06-22T07:20:07;98074.72;;;24.30;77.47
21824;BME280;11074;48.596;9.238;2023-06-22T07:22:42;98066.28;;;24.35;77.27
21824;BME280;11074;48.596;9.238;2023-06-22T07:25:08;98061.63;;;24.36;77.07
21824;BME280;11074;48.596;9.238;2023-06-22T07:27:43;98053.28;;;24.44;76.36
21824;BME280;11074;48.596;9.238;2023-06-22T07:30:10;98042.81;;;24.46;76.01
21824;BME280;11074;48.596;9.238;2023-06-22T07:32:36;98046.91;;;24.52;76.08
21824;BME280;11074;48.596;9.238;2023-06-22T07:35:03;98040.06;;;24.58;75.54
21824;BME280;11074;48.596;9.238;2023-06-22T07:37:29;98032.59;;;24.71;75.00
21824;BME280;11074;48.596;9.238;2023-06-22T07:39:55;98029.63;;;24.76;74.82
21824;BME280;11074;48.596;9.238;2023-06-22T07:42:27;98012.53;;;24.79;74.48
21824;BME280;11074;48.596;9.238;2023-06-22T07:44:58;98012.66;;;24.83;73.69
21824;BME280;11074;48.596;9.238;2023-06-22T07:47:23;98010.47;;;24.88;73.80
21824;BME280;11074;48.596;9.238;2023-06-22T07:49:54;98018.75;;;24.92;72.63
21824;BME280;11074;48.596;9.238;2023-06-22T07:52:23;98007.56;;;24.97;72.25
21824;BME280;11074;48.596;9.238;2023-06-22T07:54:48;98010.25;;;25.09;72.13
21824;BME280;11074;48.596;9.238;2023-06-22T07:57:14;97999.38;;;25.12;71.86
21824;BME280;11074;48.596;9.238;2023-06-22T07:59:39;98000.28;;;25.16;72.31
21824;BME280;11074;48.596;9.238;2023-06-22T08:02:05;98002.84;;;25.25;71.87
21824;BME280;11074;48.596;9.238;2023-06-22T08:04:31;97999.31;;;25.24;71.28
21824;BME280;11074;48.596;9.238;2023-06-22T08:06:59;97999.03;;;25.29;70.59
21824;BME280;11074;48.596;9.238;2023-06-22T08:09:27;97994.38;;;25.30;70.12
21824;BME280;11074;48.596;9.238;2023-06-22T08:11:53;98005.41;;;25.33;69.86
21824;BME280;11074;48.596;9.238;2023-06-22T08:14:19;98014.94;;;25.40;70.02
21824;BME280;11074;48.596;9.238;2023-06-22T08:16:45;98018.69;;;25.47;70.22
21824;BME280;11074;48.596;9.238;2023-06-22T08:19:11;98015.78;;;25.56;70.29
21824;BME280;11074;48.596;9.238;2023-06-22T08:21:37;98025.75;;;25.64;69.46
21824;BME280;11074;48.596;9.238;2023-06-22T08:24:03;98039.19;;;25.69;69.37
21824;BME280;11074;48.596;9.238;2023-06-22T08:26:29;98035.41;;;25.73;69.45
21824;BME280;11074;48.596;9.238;2023-06-22T08:28:55;98037.78;;;25.75;69.51
21824;BME280;11074;48.596;9.238;2023-06-22T08:31:20;98046.53;;;25.80;69.15
21824;BME280;11074;48.596;9.238;2023-06-22T08:33:46;98047.66;;;25.79;69.09
21824;BME280;11074;48.596;9.238;2023-06-22T08:36:12;98062.53;;;25.78;69.46
21824;BME280;11074;48.596;9.238;2023-06-22T08:38:39;98063.41;;;25.82;69.28
21824;BME280;11074;48.596;9.238;2023-06-22T08:41:04;98067.56;;;25.92;70.66
21824;BME280;11074;48.596;9.238;2023-06-22T08:43:30;98067.03;;;26.02;69.07
21824;BME280;11074;48.596;9.238;2023-06-22T08:45:56;98077.34;;;26.09;68.64
21824;BME280;11074;48.596;9.238;2023-06-22T08:48:21;98078.25;;;26.13;68.26
21824;BME280;11074;48.596;9.238;2023-06-22T08:50:47;98074.97;;;26.23;68.01
21824;BME280;11074;48.596;9.238;2023-06-22T08:53:13;98062.22;;;26.30;68.07
21824;BME280;11074;48.596;9.238;2023-06-22T08:55:38;98057.63;;;26.34;68.07
21824;BME280;11074;48.596;9.238;2023-06-22T08:58:04;98052.00;;;26.46;67.18
21824;BME280;11074;48.596;9.238;2023-06-22T09:00:30;98053.03;;;26.58;67.15
21824;BME280;11074;48.596;9.238;2023-06-22T09:02:58;98044.53;;;26.63;67.01
21824;BME280;11074;48.596;9.238;2023-06-22T09:05:24;98039.88;;;26.67;67.87
21824;BME280;11074;48.596;9.238;2023-06-22T09:07:53;98038.41;;;26.69;67.67
21824;BME280;11074;48.596;9.238;2023-06-22T09:10:20;98045.97;;;26.76;66.96
21824;BME280;11074;48.596;9.238;2023-06-22T09:12:46;98046.94;;;26.83;67.39
21824;BME280;11074;48.596;9.238;2023-06-22T09:15:11;98054.81;;;26.85;67.02
21824;BME280;11074;48.596;9.238;2023-06-22T09:17:38;98046.94;;;26.83;66.48
21824;BME280;11074;48.596;9.238;2023-06-22T09:20:04;98053.22;;;26.84;65.91
21824;BME280;11074;48.596;9.238;2023-06-22T09:22:35;98064.63;;;26.86;66.84
21824;BME280;11074;48.596;9.238;2023-06-22T09:25:00;98047.34;;;26.85;67.02
21824;BME280;11074;48.596;9.238;2023-06-22T09:27:26;98038.34;;;26.85;67.04
21824;BME280;11074;48.596;9.238;2023-06-22T09:29:52;98035.25;;;26.86;66.99
21824;BME280;11074;48.596;9.238;2023-06-22T09:32:17;98021.16;;;26.88;66.65
21824;BME280;11074;48.596;9.238;2023-06-22T09:34:43;98017.25;;;26.89;66.35
21824;BME280;11074;48.596;9.238;2023-06-22T09:37:09;98012.19;;;26.91;66.09
21824;BME280;11074;48.596;9.238;2023-06-22T09:39:34;98015.44;;;26.96;66.70
21824;BME280;11074;48.596;9.238;2023-06-22T09:42:01;98009.72;;;27.05;66.76
21824;BME280;11074;48.596;9.238;2023-06-22T09:44:27;98013.41;;;27.13;66.26
21824;BME280;11074;48.596;9.238;2023-06-22T09:46:53;98014.75;;;27.22;66.78
21824;BME280;11074;48.596;9.238;2023-06-22T09:49:18;98005.50;;;27.30;66.38
21824;BME280;11074;48.596;9.238;2023-06-22T09:51:44;98009.22;;;27.41;67.08
21824;BME280;11074;48.596;9.238;2023-06-22T09:54:10;98005.53;;;27.53;65.61
21824;BME280;11074;48.596;9.238;2023-06-22T09:56:35;97993.81;;;27.56;65.51
21824;BME280;11074;48.596;9.238;2023-06-22T09:59:03;98001.66;;;27.57;64.64
21824;BME280;11074;48.596;9.238;2023-06-22T10:01:28;97997.69;;;27.55;65.56
21824;BME280;11074;48.596;9.238;2023-06-22T10:03:55;97993.97;;;27.66;65.21
21824;BME280;11074;48.596;9.238;2023-06-22T10:06:22;97987.91;;;27.80;65.02
21824;BME280;11074;48.596;9.238;2023-06-22T10:08:49;97987.69;;;27.92;64.37
21824;BME280;11074;48.596;9.238;2023-06-22T10:11:15;97978.88;;;28.02;63.72
21824;BME280;11074;48.596;9.238;2023-06-22T10:13:41;97981.72;;;28.09;63.01
21824;BME280;11074;48.596;9.238;2023-06-22T10:16:06;97980.09;;;28.08;63.33
21824;BME280;11074;48.596;9.238;2023-06-22T10:18:32;97971.06;;;28.08;63.93
21824;BME280;11074;48.596;9.238;2023-06-22T10:20:58;97966.00;;;28.10;62.96
21824;BME280;11074;48.596;9.238;2023-06-22T10:23:24;97964.47;;;28.12;62.49
21824;BME280;11074;48.596;9.238;2023-06-22T10:25:49;97959.78;;;28.13;61.64
21824;BME280;11074;48.596;9.238;2023-06-22T10:28:15;97957.84;;;28.17;61.78
21824;BME280;11074;48.596;9.238;2023-06-22T10:30:42;97954.31;;;28.16;61.60
21824;BME280;11074;48.596;9.238;2023-06-22T10:33:09;97955.97;;;28.24;62.00
21824;BME280;11074;48.596;9.238;2023-06-22T10:35:36;97955.38;;;28.38;63.03
21824;BME280;11074;48.596;9.238;2023-06-22T10:38:03;97959.88;;;28.53;61.78
21824;BME280;11074;48.596;9.238;2023-06-22T10:40:29;97945.97;;;28.69;60.25
21824;BME280;11074;48.596;9.238;2023-06-22T10:42:55;97940.88;;;28.74;59.34
21824;BME280;11074;48.596;9.238;2023-06-22T10:45:21;97938.47;;;28.69;59.15
21824;BME280;11074;48.596;9.238;2023-06-22T10:47:47;97934.63;;;28.74;59.69
21824;BME280;11074;48.596;9.238;2023-06-22T10:50:13;97933.53;;;28.82;59.55
21824;BME280;11074;48.596;9.238;2023-06-22T10:52:39;97924.53;;;28.89;59.49
21824;BME280;11074;48.596;9.238;2023-06-22T10:55:08;97919.56;;;29.05;60.23
21824;BME280;11074;48.596;9.238;2023-06-22T10:57:34;97922.16;;;29.24;60.06
21824;BME280;11074;48.596;9.238;2023-06-22T10:59:59;97917.84;;;29.26;59.49
21824;BME280;11074;48.596;9.238;2023-06-22T11:02:25;97911.19;;;29.31;59.61
21824;BME280;11074;48.596;9.238;2023-06-22T11:04:53;97915.97;;;29.41;59.78
21824;BME280;11074;48.596;9.238;2023-06-22T11:07:19;97926.69;;;29.46;58.93
21824;BME280;11074;48.596;9.238;2023-06-22T11:09:44;97933.00;;;29.50;58.16
21824;BME280;11074;48.596;9.238;2023-06-22T11:12:10;97935.38;;;29.55;57.40
21824;BME280;11074;48.596;9.238;2023-06-22T11:14:36;97927.91;;;29.56;57.31
21824;BME280;11074;48.596;9.238;2023-06-22T11:17:02;97929.78;;;29.44;57.16
21824;BME280;11074;48.596;9.238;2023-06-22T11:19:27;97935.75;;;29.50;57.78
21824;BME280;11074;48.596;9.238;2023-06-22T11:21:53;97934.19;;;29.53;57.69
21824;BME280;11074;48.596;9.238;2023-06-22T11:24:19;97932.28;;;29.60;57.76
21824;BME280;11074;48.596;9.238;2023-06-22T11:26:45;97925.19;;;29.59;56.02
21824;BME280;11074;48.596;9.238;2023-06-22T11:29:10;97921.66;;;29.62;56.06
21824;BME280;11074;48.596;9.238;2023-06-22T11:31:36;97906.72;;;29.63;55.50
21824;BME280;11074;48.596;9.238;2023-06-22T11:34:02;97897.69;;;29.66;55.26
21824;BME280;11074;48.596;9.238;2023-06-22T11:36:29;97892.19;;;29.73;54.51
21824;BME280;11074;48.596;9.238;2023-06-22T11:38:58;97895.03;;;29.84;55.05
21824;BME280;11074;48.596;9.238;2023-06-22T11:41:24;97897.44;;;29.89;56.80
21824;BME280;11074;48.596;9.238;2023-06-22T11:43:49;97899.03;;;29.90;56.77
21824;BME280;11074;48.596;9.238;2023-06-22T11:46:15;97897.84;;;29.87;56.14
21824;BME280;11074;48.596;9.238;2023-06-22T11:48:41;97910.78;;;29.80;54.68
21824;BME280;11074;48.596;9.238;2023-06-22T11:51:06;97927.34;;;29.80;55.09
21824;BME280;11074;48.596;9.238;2023-06-22T11:53:34;97928.53;;;29.82;55.36
21824;BME280;11074;48.596;9.238;2023-06-22T11:56:01;97908.09;;;29.90;57.40
21824;BME280;11074;48.596;9.238;2023-06-22T11:58:27;97882.50;;;29.97;56.66
21824;BME280;11074;48.596;9.238;2023-06-22T12:00:54;97886.88;;;30.05;55.89
21824;BME280;11074;48.596;9.238;2023-06-22T12:03:20;97898.78;;;30.16;55.70
21824;BME280;11074;48.596;9.238;2023-06-22T12:05:47;97896.41;;;30.15;55.04
21824;BME280;11074;48.596;9.238;2023-06-22T12:08:13;97896.81;;;30.17;54.71
21824;BME280;11074;48.596;9.238;2023-06-22T12:10:39;97890.88;;;30.18;54.39
21824;BME280;11074;48.596;9.238;2023-06-22T12:13:05;97888.13;;;30.18;53.47
21824;BME280;11074;48.596;9.238;2023-06-22T12:15:31;97880.28;;;30.20;54.71
21824;BME280;11074;48.596;9.238;2023-06-22T12:17:56;97871.22;;;30.23;54.79
21824;BME280;11074;48.596;9.238;2023-06-22T12:20:22;97891.31;;;30.24;55.33
21824;BME280;11074;48.596;9.238;2023-06-22T12:22:48;97894.06;;;30.20;54.98
21824;BME280;11074;48.596;9.238;2023-06-22T12:25:16;97901.91;;;30.18;54.74
21824;BME280;11074;48.596;9.238;2023-06-22T12:27:42;97893.59;;;30.08;55.34
21824;BME280;11074;48.596;9.238;2023-06-22T12:30:09;97908.56;;;30.03;56.74
21824;BME280;11074;48.596;9.238;2023-06-22T12:32:34;97928.59;;;29.93;56.26
21824;BME280;11074;48.596;9.238;2023-06-22T12:35:00;97942.34;;;29.86;56.46
21824;BME280;11074;48.596;9.238;2023-06-22T12:37:26;97949.00;;;29.81;56.42
21824;BME280;11074;48.596;9.238;2023-06-22T12:39:53;97952.03;;;29.69;55.92
21824;BME280;11074;48.596;9.238;2023-06-22T12:42:19;97956.34;;;29.67;57.35
21824;BME280;11074;48.596;9.238;2023-06-22T12:44:46;97947.69;;;29.65;57.03
21824;BME280;11074;48.596;9.238;2023-06-22T12:47:12;97961.06;;;29.66;56.80
21824;BME280;11074;48.596;9.238;2023-06-22T12:49:38;97954.78;;;29.69;57.05
21824;BME280;11074;48.596;9.238;2023-06-22T12:52:09;97944.94;;;29.68;57.46
21824;BME280;11074;48.596;9.238;2023-06-22T12:54:36;97936.25;;;29.66;58.22
21824;BME280;11074;48.596;9.238;2023-06-22T12:57:01;97931.47;;;29.60;58.26
21824;BME280;11074;48.596;9.238;2023-06-22T12:59:27;97923.22;;;29.60;57.90
21824;BME280;11074;48.596;9.238;2023-06-22T13:01:53;97920.09;;;29.61;58.69
21824;BME280;11074;48.596;9.238;2023-06-22T13:04:18;97920.09;;;29.61;58.17
21824;BME280;11074;48.596;9.238;2023-06-22T13:06:45;97917.72;;;29.63;58.26
21824;BME280;11074;48.596;9.238;2023-06-22T13:09:15;97918.56;;;29.67;58.15